createdAt,value
2019-03-28T00:00:06.086Z,0.00
2019-03-28T00:01:05.957Z,0.00
2019-03-28T00:02:05.917Z,0.00
2019-03-28T00:03:05.869Z,0.00
2019-03-28T00:04:05.818Z,0.00
2019-03-28T00:05:05.773Z,0.00
2019-03-28T00:06:05.726Z,0.00
2019-03-28T00:07:05.676Z,0.00
2019-03-28T00:08:05.629Z,0.00
2019-03-28T00:09:07.693Z,0.00
2019-03-28T00:10:05.537Z,0.00
2019-03-28T00:11:05.491Z,0.00
2019-03-28T00:12:05.446Z,0.00
2019-03-28T00:13:05.397Z,0.00
2019-03-28T00:14:05.366Z,0.00
2019-03-28T00:15:05.305Z,0.00
2019-03-28T00:16:05.262Z,0.00
2019-03-28T00:17:05.213Z,0.00
2019-03-28T00:18:05.170Z,0.00
2019-03-28T00:19:05.117Z,0.00
2019-03-28T00:20:05.076Z,0.00
2019-03-28T00:21:05.029Z,0.00
2019-03-28T00:22:05.797Z,0.00
2019-03-28T00:23:04.934Z,0.00
2019-03-28T00:24:04.887Z,0.00
2019-03-28T00:25:04.839Z,0.00
2019-03-28T00:26:04.791Z,0.00
2019-03-28T00:27:04.746Z,0.00
2019-03-28T00:28:04.702Z,0.00
2019-03-28T00:29:04.651Z,0.00
2019-03-28T00:30:04.612Z,0.00
2019-03-28T00:31:04.562Z,0.00
2019-03-28T00:32:04.508Z,0.00
2019-03-28T00:33:04.464Z,0.00
2019-03-28T00:34:04.416Z,0.00
2019-03-28T00:35:04.369Z,0.00
2019-03-28T00:36:04.323Z,0.00
2019-03-28T00:37:07.428Z,0.00
2019-03-28T00:38:04.230Z,0.00
2019-03-28T00:39:04.180Z,0.00
2019-03-28T00:40:04.142Z,0.00
2019-03-28T00:41:04.092Z,0.00
2019-03-28T00:42:04.042Z,0.00
2019-03-28T00:43:03.998Z,0.00
2019-03-28T00:44:03.951Z,0.00
2019-03-28T00:45:03.905Z,0.00
2019-03-28T00:46:03.858Z,0.00
2019-03-28T00:47:03.812Z,0.00
2019-03-28T00:48:03.764Z,0.00
2019-03-28T00:49:03.721Z,0.00
2019-03-28T00:50:03.671Z,0.00
2019-03-28T00:51:03.629Z,0.00
2019-03-28T00:52:05.135Z,0.00
2019-03-28T00:53:03.531Z,0.00
2019-03-28T00:54:03.484Z,0.00
2019-03-28T00:55:03.435Z,0.00
2019-03-28T00:56:03.388Z,0.00
2019-03-28T00:57:03.343Z,0.00
2019-03-28T00:58:03.300Z,0.00
2019-03-28T00:59:03.246Z,0.00
2019-03-28T01:00:03.207Z,0.00
2019-03-28T01:01:03.152Z,0.00
2019-03-28T01:02:03.109Z,0.00
2019-03-28T01:03:03.060Z,0.00
2019-03-28T01:04:03.015Z,0.00
2019-03-28T01:05:02.974Z,0.00
2019-03-28T01:06:02.919Z,0.00
2019-03-28T01:07:02.876Z,0.00
2019-03-28T01:08:02.833Z,0.00
2019-03-28T01:09:04.284Z,0.00
2019-03-28T01:10:02.737Z,0.00
2019-03-28T01:11:02.688Z,0.00
2019-03-28T01:12:02.639Z,0.00
2019-03-28T01:13:02.592Z,0.00
2019-03-28T01:14:02.547Z,0.00
2019-03-28T01:15:02.502Z,0.00
2019-03-28T01:16:02.451Z,0.00
2019-03-28T01:17:02.406Z,0.00
2019-03-28T01:18:02.361Z,0.00
2019-03-28T01:19:02.323Z,0.00
2019-03-28T01:20:02.262Z,0.00
2019-03-28T01:21:02.219Z,0.00
2019-03-28T01:22:02.172Z,0.00
2019-03-28T01:23:02.121Z,0.00
2019-03-28T01:24:02.077Z,0.00
2019-03-28T01:25:02.058Z,0.00
2019-03-28T01:26:01.982Z,0.00
2019-03-28T01:27:01.941Z,0.00
2019-03-28T01:28:01.898Z,0.00
2019-03-28T01:29:01.850Z,0.00
2019-03-28T01:30:01.797Z,0.00
2019-03-28T01:31:01.751Z,0.00
2019-03-28T01:32:01.816Z,0.00
2019-03-28T01:33:01.659Z,0.00
2019-03-28T01:34:01.611Z,0.00
2019-03-28T01:35:01.568Z,0.00
2019-03-28T01:36:01.516Z,0.00
2019-03-28T01:37:01.472Z,0.00
2019-03-28T01:38:01.434Z,0.00
2019-03-28T01:39:01.379Z,0.00
2019-03-28T01:40:01.333Z,0.00
2019-03-28T01:41:01.292Z,0.00
2019-03-28T01:42:01.240Z,0.00
2019-03-28T01:43:01.188Z,0.00
2019-03-28T01:44:01.142Z,0.00
2019-03-28T01:45:01.096Z,0.00
2019-03-28T01:46:01.047Z,0.00
2019-03-28T01:47:00.999Z,0.00
2019-03-28T01:48:00.957Z,0.00
2019-03-28T01:49:03.611Z,0.00
2019-03-28T01:50:00.860Z,0.00
2019-03-28T01:51:00.813Z,0.00
2019-03-28T01:52:00.773Z,0.00
2019-03-28T01:53:05.582Z,0.00
2019-03-28T01:54:00.670Z,0.00
2019-03-28T01:55:00.625Z,0.00
2019-03-28T01:56:00.581Z,0.00
2019-03-28T01:57:10.390Z,0.00
2019-03-28T01:58:00.486Z,0.00
2019-03-28T01:59:00.437Z,0.00
2019-03-28T02:00:00.401Z,0.00
2019-03-28T02:01:02.801Z,0.00
2019-03-28T02:02:00.296Z,0.00
2019-03-28T02:03:00.252Z,0.00
2019-03-28T02:04:00.205Z,0.00
2019-03-28T02:05:00.278Z,0.00
2019-03-28T02:06:00.108Z,0.00
2019-03-28T02:07:00.070Z,0.00
2019-03-28T02:08:02.632Z,0.00
2019-03-28T02:08:59.973Z,0.00
2019-03-28T02:09:59.924Z,0.00
2019-03-28T02:10:59.879Z,0.00
2019-03-28T02:11:59.829Z,0.00
2019-03-28T02:12:59.786Z,0.00
2019-03-28T02:13:59.735Z,0.00
2019-03-28T02:14:59.693Z,0.00
2019-03-28T02:15:59.640Z,0.00
2019-03-28T02:16:59.594Z,0.00
2019-03-28T02:17:59.550Z,0.00
2019-03-28T02:18:59.501Z,0.00
2019-03-28T02:19:59.452Z,0.00
2019-03-28T02:20:59.404Z,0.00
2019-03-28T02:21:59.361Z,0.00
2019-03-28T02:22:59.313Z,0.00
2019-03-28T02:23:59.267Z,0.00
2019-03-28T02:24:59.216Z,0.00
2019-03-28T02:25:59.184Z,0.00
2019-03-28T02:26:59.319Z,0.00
2019-03-28T02:27:59.077Z,0.00
2019-03-28T02:28:59.030Z,0.00
2019-03-28T02:29:58.986Z,0.00
2019-03-28T02:30:58.941Z,0.00
2019-03-28T02:31:58.894Z,0.00
2019-03-28T02:32:59.923Z,0.00
2019-03-28T02:33:58.805Z,0.00
2019-03-28T02:34:58.749Z,0.00
2019-03-28T02:35:58.702Z,0.00
2019-03-28T02:36:58.660Z,0.00
2019-03-28T02:37:58.607Z,0.00
2019-03-28T02:38:58.699Z,0.00
2019-03-28T02:39:58.537Z,0.00
2019-03-28T02:40:58.469Z,0.00
2019-03-28T02:41:58.424Z,0.00
2019-03-28T02:42:58.378Z,0.00
2019-03-28T02:43:58.325Z,0.00
2019-03-28T02:44:58.277Z,0.00
2019-03-28T02:45:58.236Z,0.00
2019-03-28T02:46:58.196Z,0.00
2019-03-28T02:47:58.140Z,0.00
2019-03-28T02:48:58.095Z,0.00
2019-03-28T02:49:58.047Z,0.00
2019-03-28T02:50:58.004Z,0.00
2019-03-28T02:51:57.954Z,0.00
2019-03-28T02:52:57.910Z,0.00
2019-03-28T02:53:57.857Z,0.00
2019-03-28T02:54:58.033Z,0.00
2019-03-28T02:55:57.776Z,0.00
2019-03-28T02:56:57.717Z,0.00
2019-03-28T02:57:57.670Z,0.00
2019-03-28T02:58:57.620Z,0.00
2019-03-28T02:59:57.580Z,0.00
2019-03-28T03:00:57.530Z,0.00
2019-03-28T03:01:57.484Z,0.00
2019-03-28T03:02:57.440Z,0.00
2019-03-28T03:03:57.388Z,0.00
2019-03-28T03:04:57.338Z,0.00
2019-03-28T03:05:57.311Z,0.00
2019-03-28T03:06:57.250Z,0.00
2019-03-28T03:07:57.201Z,0.00
2019-03-28T03:08:57.158Z,0.00
2019-03-28T03:09:57.105Z,0.00
2019-03-28T03:10:57.060Z,0.00
2019-03-28T03:11:57.011Z,0.00
2019-03-28T03:12:56.966Z,0.00
2019-03-28T03:13:56.920Z,0.00
2019-03-28T03:14:56.869Z,0.00
2019-03-28T03:15:57.183Z,0.00
2019-03-28T03:16:56.776Z,0.00
2019-03-28T03:17:56.741Z,0.00
2019-03-28T03:18:56.688Z,0.00
2019-03-28T03:19:56.634Z,0.00
2019-03-28T03:20:56.593Z,0.00
2019-03-28T03:21:56.540Z,0.00
2019-03-28T03:22:56.494Z,0.00
2019-03-28T03:23:56.455Z,0.00
2019-03-28T03:24:56.402Z,0.00
2019-03-28T03:25:56.355Z,0.00
2019-03-28T03:26:56.307Z,0.00
2019-03-28T03:27:58.894Z,0.00
2019-03-28T03:28:56.215Z,0.00
2019-03-28T03:29:56.166Z,0.00
2019-03-28T03:30:56.137Z,0.00
2019-03-28T03:31:56.091Z,0.00
2019-03-28T03:32:56.028Z,0.00
2019-03-28T03:33:55.979Z,0.00
2019-03-28T03:34:55.943Z,0.00
2019-03-28T03:35:55.883Z,0.00
2019-03-28T03:36:55.836Z,0.00
2019-03-28T03:37:56.019Z,0.00
2019-03-28T03:38:55.745Z,0.00
2019-03-28T03:39:55.695Z,0.00
2019-03-28T03:40:55.648Z,0.00
2019-03-28T03:41:55.613Z,0.00
2019-03-28T03:42:56.780Z,0.00
2019-03-28T03:43:55.508Z,0.00
2019-03-28T03:44:55.464Z,0.00
2019-03-28T03:45:55.416Z,0.00
2019-03-28T03:46:55.370Z,0.00
2019-03-28T03:47:55.321Z,0.00
2019-03-28T03:48:55.278Z,0.00
2019-03-28T03:49:55.803Z,0.00
2019-03-28T03:50:55.185Z,0.00
2019-03-28T03:51:55.134Z,0.00
2019-03-28T03:52:55.087Z,0.00
2019-03-28T03:53:55.042Z,0.00
2019-03-28T03:54:55.017Z,0.00
2019-03-28T03:55:54.952Z,0.00
2019-03-28T03:56:54.897Z,0.00
2019-03-28T03:57:54.852Z,0.00
2019-03-28T03:58:54.810Z,0.00
2019-03-28T03:59:54.761Z,0.00
2019-03-28T04:00:54.714Z,0.00
2019-03-28T04:01:54.667Z,0.00
2019-03-28T04:02:54.618Z,0.00
2019-03-28T04:03:55.769Z,0.00
2019-03-28T04:04:56.559Z,0.00
2019-03-28T04:05:54.479Z,0.00
2019-03-28T04:06:54.434Z,0.00
2019-03-28T04:07:54.385Z,0.00
2019-03-28T04:08:54.339Z,0.00
2019-03-28T04:09:54.290Z,0.00
2019-03-28T04:10:54.246Z,0.00
2019-03-28T04:11:54.195Z,0.00
2019-03-28T04:12:54.149Z,0.00
2019-03-28T04:13:54.100Z,0.00
2019-03-28T04:14:54.052Z,0.00
2019-03-28T04:15:54.023Z,0.00
2019-03-28T04:16:53.968Z,0.00
2019-03-28T04:17:53.912Z,0.00
2019-03-28T04:18:53.862Z,0.00
2019-03-28T04:19:53.815Z,0.00
2019-03-28T04:20:53.770Z,0.00
2019-03-28T04:21:53.723Z,0.00
2019-03-28T04:22:53.676Z,0.00
2019-03-28T04:23:53.643Z,0.00
2019-03-28T04:24:53.591Z,0.00
2019-03-28T04:25:53.544Z,0.00
2019-03-28T04:26:53.505Z,0.00
2019-03-28T04:27:53.447Z,0.00
2019-03-28T04:28:53.394Z,0.00
2019-03-28T04:29:53.348Z,0.00
2019-03-28T04:30:53.302Z,0.00
2019-03-28T04:31:53.271Z,0.00
2019-03-28T04:32:53.206Z,0.00
2019-03-28T04:33:53.162Z,0.00
2019-03-28T04:34:53.121Z,0.00
2019-03-28T04:35:53.065Z,0.00
2019-03-28T04:36:53.017Z,0.00
2019-03-28T04:37:52.975Z,0.00
2019-03-28T04:38:52.926Z,0.00
2019-03-28T04:39:52.878Z,0.00
2019-03-28T04:40:52.830Z,0.00
2019-03-28T04:41:52.782Z,0.00
2019-03-28T04:42:52.735Z,0.00
2019-03-28T04:43:55.669Z,0.00
2019-03-28T04:44:52.644Z,0.00
2019-03-28T04:45:52.595Z,0.00
2019-03-28T04:46:52.551Z,0.00
2019-03-28T04:47:52.500Z,0.00
2019-03-28T04:48:52.532Z,0.00
2019-03-28T04:49:52.407Z,0.00
2019-03-28T04:50:52.358Z,0.00
2019-03-28T04:51:52.314Z,0.00
2019-03-28T04:52:52.992Z,0.00
2019-03-28T04:53:52.218Z,0.00
2019-03-28T04:54:52.172Z,0.00
2019-03-28T04:55:52.137Z,0.00
2019-03-28T04:56:52.075Z,0.00
2019-03-28T04:57:52.032Z,0.00
2019-03-28T04:58:51.980Z,0.00
2019-03-28T04:59:51.935Z,0.00
2019-03-28T05:00:51.888Z,4.00
2019-03-28T05:02:02.687Z,4.00
2019-03-28T05:02:51.796Z,0.00
2019-03-28T05:03:51.756Z,0.00
2019-03-28T05:04:51.699Z,4.00
2019-03-28T05:05:51.658Z,4.00
2019-03-28T05:06:51.611Z,4.00
2019-03-28T05:07:51.559Z,8.00
2019-03-28T05:08:51.511Z,8.00
2019-03-28T05:09:51.469Z,8.00
2019-03-28T05:10:51.420Z,8.00
2019-03-28T05:11:51.372Z,8.00
2019-03-28T05:12:51.512Z,8.00
2019-03-28T05:13:51.284Z,12.00
2019-03-28T05:14:51.233Z,12.00
2019-03-28T05:15:51.194Z,12.00
2019-03-28T05:16:51.137Z,16.00
2019-03-28T05:17:51.087Z,16.00
2019-03-28T05:18:51.042Z,20.00
2019-03-28T05:19:51.002Z,20.00
2019-03-28T05:20:50.946Z,24.00
2019-03-28T05:21:50.900Z,24.00
2019-03-28T05:22:50.853Z,28.00
2019-03-28T05:23:50.807Z,36.00
2019-03-28T05:24:50.761Z,36.00
2019-03-28T05:25:50.710Z,44.00
2019-03-28T05:26:50.674Z,48.00
2019-03-28T05:27:50.644Z,48.00
2019-03-28T05:28:57.460Z,56.00
2019-03-28T05:29:50.597Z,56.00
2019-03-28T05:30:50.524Z,60.00
2019-03-28T05:31:50.430Z,60.00
2019-03-28T05:32:50.415Z,60.00
2019-03-28T05:33:50.335Z,64.00
2019-03-28T05:34:50.286Z,68.00
2019-03-28T05:35:50.238Z,76.00
2019-03-28T05:36:52.084Z,80.00
2019-03-28T05:37:50.147Z,88.00
2019-03-28T05:38:50.098Z,92.00
2019-03-28T05:39:50.051Z,100.00
2019-03-28T05:40:50.006Z,104.00
2019-03-28T05:41:49.958Z,112.00
2019-03-28T05:42:49.910Z,120.00
2019-03-28T05:43:49.883Z,124.00
2019-03-28T05:44:49.814Z,132.00
2019-03-28T05:45:49.773Z,136.00
2019-03-28T05:46:49.731Z,144.00
2019-03-28T05:47:49.675Z,148.00
2019-03-28T05:48:49.634Z,156.00
2019-03-28T05:49:49.582Z,160.00
2019-03-28T05:50:49.536Z,160.00
2019-03-28T05:51:49.501Z,164.00
2019-03-28T05:52:49.441Z,172.00
2019-03-28T05:53:49.392Z,184.00
2019-03-28T05:54:49.343Z,192.00
2019-03-28T05:55:49.295Z,204.00
2019-03-28T05:56:49.249Z,208.00
2019-03-28T05:57:49.202Z,212.00
2019-03-28T05:58:49.155Z,216.00
2019-03-28T05:59:49.109Z,224.00
2019-03-28T06:00:51.323Z,232.00
2019-03-28T06:01:49.016Z,240.00
2019-03-28T06:02:48.965Z,240.00
2019-03-28T06:03:48.922Z,240.00
2019-03-28T06:04:48.872Z,248.00
2019-03-28T06:05:48.828Z,256.00
2019-03-28T06:06:48.778Z,268.00
2019-03-28T06:07:48.734Z,284.00
2019-03-28T06:08:48.686Z,300.00
2019-03-28T06:09:48.640Z,308.00
2019-03-28T06:10:48.590Z,316.00
2019-03-28T06:11:48.542Z,320.00
2019-03-28T06:12:48.500Z,320.00
2019-03-28T06:13:48.456Z,320.00
2019-03-28T06:14:48.405Z,320.00
2019-03-28T06:15:48.363Z,328.00
2019-03-28T06:16:48.308Z,344.00
2019-03-28T06:17:48.261Z,364.00
2019-03-28T06:18:48.220Z,388.00
2019-03-28T06:19:48.171Z,408.00
2019-03-28T06:20:48.122Z,424.00
2019-03-28T06:21:48.074Z,436.00
2019-03-28T06:22:48.028Z,436.00
2019-03-28T06:23:47.983Z,444.00
2019-03-28T06:24:47.933Z,456.00
2019-03-28T06:25:47.885Z,468.00
2019-03-28T06:26:50.041Z,492.00
2019-03-28T06:27:47.797Z,520.00
2019-03-28T06:28:47.748Z,544.00
2019-03-28T06:29:47.705Z,568.00
2019-03-28T06:30:47.657Z,576.00
2019-03-28T06:31:55.287Z,584.00
2019-03-28T06:32:47.569Z,596.00
2019-03-28T06:33:47.510Z,612.00
2019-03-28T06:34:47.460Z,620.00
2019-03-28T06:35:48.330Z,640.00
2019-03-28T06:36:47.369Z,656.00
2019-03-28T06:37:47.322Z,628.00
2019-03-28T06:38:47.274Z,608.00
2019-03-28T06:39:47.232Z,668.00
2019-03-28T06:40:47.180Z,700.00
2019-03-28T06:41:47.155Z,712.00
2019-03-28T06:42:47.089Z,732.00
2019-03-28T06:43:47.055Z,760.00
2019-03-28T06:44:46.992Z,788.00
2019-03-28T06:45:46.947Z,812.00
2019-03-28T06:46:46.901Z,840.00
2019-03-28T06:47:46.852Z,856.00
2019-03-28T06:48:46.808Z,880.00
2019-03-28T06:49:46.762Z,900.00
2019-03-28T06:50:46.720Z,904.00
2019-03-28T06:51:46.667Z,892.00
2019-03-28T06:52:46.652Z,852.00
2019-03-28T06:53:46.579Z,780.00
2019-03-28T06:54:46.529Z,708.00
2019-03-28T06:55:46.476Z,644.00
2019-03-28T06:56:46.435Z,624.00
2019-03-28T06:57:46.381Z,664.00
2019-03-28T06:58:46.346Z,760.00
2019-03-28T06:59:46.287Z,836.00
2019-03-28T07:00:46.245Z,884.00
2019-03-28T07:01:46.196Z,912.00
2019-03-28T07:02:46.150Z,936.00
2019-03-28T07:03:47.498Z,956.00
2019-03-28T07:04:46.062Z,980.00
2019-03-28T07:05:46.010Z,1000.00
2019-03-28T07:06:45.960Z,1016.00
2019-03-28T07:07:45.918Z,1040.00
2019-03-28T07:08:45.875Z,1064.00
2019-03-28T07:09:45.822Z,1060.00
2019-03-28T07:10:45.774Z,1040.00
2019-03-28T07:11:45.726Z,1008.00
2019-03-28T07:12:45.681Z,944.00
2019-03-28T07:13:45.637Z,856.00
2019-03-28T07:14:45.593Z,836.00
2019-03-28T07:15:45.544Z,880.00
2019-03-28T07:16:45.499Z,924.00
2019-03-28T07:17:45.448Z,956.00
2019-03-28T07:18:45.406Z,920.00
2019-03-28T07:19:45.352Z,880.00
2019-03-28T07:20:45.319Z,884.00
2019-03-28T07:21:45.264Z,836.00
2019-03-28T07:22:46.095Z,804.00
2019-03-28T07:23:45.174Z,808.00
2019-03-28T07:24:45.122Z,852.00
2019-03-28T07:25:45.076Z,892.00
2019-03-28T07:26:45.028Z,928.00
2019-03-28T07:27:44.979Z,992.00
2019-03-28T07:28:44.942Z,1068.00
2019-03-28T07:29:50.675Z,1116.00
2019-03-28T07:30:45.359Z,1176.00
2019-03-28T07:31:44.796Z,1236.00
2019-03-28T07:32:44.756Z,1288.00
2019-03-28T07:33:44.702Z,1320.00
2019-03-28T07:34:44.654Z,1384.00
2019-03-28T07:35:44.615Z,1440.00
2019-03-28T07:36:44.562Z,1500.00
2019-03-28T07:37:44.521Z,1528.00
2019-03-28T07:38:44.468Z,1536.00
2019-03-28T07:39:44.428Z,1556.00
2019-03-28T07:40:44.379Z,1584.00
2019-03-28T07:41:44.335Z,1612.00
2019-03-28T07:42:44.287Z,1636.00
2019-03-28T07:43:44.237Z,1580.00
2019-03-28T07:44:44.189Z,1568.00
2019-03-28T07:45:44.143Z,1624.00
2019-03-28T07:46:44.095Z,1640.00
2019-03-28T07:47:44.053Z,1632.00
2019-03-28T07:48:44.002Z,1596.00
2019-03-28T07:49:43.959Z,1548.00
2019-03-28T07:50:43.914Z,1504.00
2019-03-28T07:51:43.864Z,1476.00
2019-03-28T07:52:43.823Z,1472.00
2019-03-28T07:53:43.773Z,1480.00
2019-03-28T07:54:43.726Z,1464.00
2019-03-28T07:55:43.678Z,1472.00
2019-03-28T07:56:43.640Z,1472.00
2019-03-28T07:57:43.591Z,1476.00
2019-03-28T07:58:44.293Z,1492.00
2019-03-28T07:59:44.169Z,1544.00
2019-03-28T08:00:43.451Z,1552.00
2019-03-28T08:01:43.403Z,1532.00
2019-03-28T08:02:43.357Z,1520.00
2019-03-28T08:03:43.309Z,1512.00
2019-03-28T08:04:43.266Z,1544.00
2019-03-28T08:05:43.221Z,1544.00
2019-03-28T08:06:49.765Z,1524.00
2019-03-28T08:07:45.313Z,1508.00
2019-03-28T08:08:44.231Z,1496.00
2019-03-28T08:09:43.035Z,1452.00
2019-03-28T08:10:42.991Z,1424.00
2019-03-28T08:11:42.944Z,1424.00
2019-03-28T08:12:42.909Z,1436.00
2019-03-28T08:13:42.851Z,1448.00
2019-03-28T08:14:42.808Z,1492.00
2019-03-28T08:15:42.757Z,1548.00
2019-03-28T08:16:42.787Z,1620.00
2019-03-28T08:17:42.666Z,1708.00
2019-03-28T08:18:42.621Z,1796.00
2019-03-28T08:19:42.575Z,1860.00
2019-03-28T08:20:42.528Z,1908.00
2019-03-28T08:21:42.480Z,1920.00
2019-03-28T08:22:42.440Z,1900.00
2019-03-28T08:23:42.390Z,1892.00
2019-03-28T08:24:42.352Z,1920.00
2019-03-28T08:25:42.297Z,1968.00
2019-03-28T08:26:42.251Z,2000.00
2019-03-28T08:27:42.202Z,1992.00
2019-03-28T08:28:42.156Z,1976.00
2019-03-28T08:29:42.114Z,1952.00
2019-03-28T08:30:45.230Z,1928.00
2019-03-28T08:31:42.409Z,1908.00
2019-03-28T08:32:41.976Z,1896.00
2019-03-28T08:33:41.928Z,1880.00
2019-03-28T08:34:41.879Z,1872.00
2019-03-28T08:35:41.836Z,1868.00
2019-03-28T08:36:41.790Z,1868.00
2019-03-28T08:37:41.745Z,1880.00
2019-03-28T08:38:41.699Z,1900.00
2019-03-28T08:39:44.486Z,1928.00
2019-03-28T08:40:41.604Z,1960.00
2019-03-28T08:41:41.563Z,2004.00
2019-03-28T08:42:41.515Z,2060.00
2019-03-28T08:43:42.656Z,2132.00
2019-03-28T08:44:41.422Z,2204.00
2019-03-28T08:45:41.380Z,2252.00
2019-03-28T08:46:41.333Z,2280.00
2019-03-28T08:47:41.286Z,2308.00
2019-03-28T08:48:41.239Z,2336.00
2019-03-28T08:49:41.194Z,2376.00
2019-03-28T08:50:41.155Z,2420.00
2019-03-28T08:51:41.116Z,2484.00
2019-03-28T08:52:41.060Z,2580.00
2019-03-28T08:53:41.012Z,2684.00
2019-03-28T08:54:40.964Z,2792.00
2019-03-28T08:55:40.918Z,2884.00
2019-03-28T08:56:40.874Z,2948.00
2019-03-28T08:57:40.834Z,2980.00
2019-03-28T08:58:40.781Z,2976.00
2019-03-28T08:59:47.001Z,2948.00
2019-03-28T09:00:51.492Z,2920.00
2019-03-28T09:01:40.662Z,2912.00
2019-03-28T09:02:40.601Z,2920.00
2019-03-28T09:03:40.555Z,2944.00
2019-03-28T09:04:40.507Z,2972.00
2019-03-28T09:05:40.542Z,3004.00
2019-03-28T09:06:40.419Z,3024.00
2019-03-28T09:07:40.379Z,3044.00
2019-03-28T09:08:40.325Z,3052.00
2019-03-28T09:09:40.285Z,3064.00
2019-03-28T09:10:40.233Z,3080.00
2019-03-28T09:11:40.188Z,3104.00
2019-03-28T09:12:52.886Z,3136.00
2019-03-28T09:13:40.100Z,3176.00
2019-03-28T09:14:52.790Z,3240.00
2019-03-28T09:15:59.229Z,3304.00
2019-03-28T09:16:39.964Z,3360.00
2019-03-28T09:17:39.917Z,3400.00
2019-03-28T09:18:39.870Z,3412.00
2019-03-28T09:19:39.825Z,3404.00
2019-03-28T09:20:39.802Z,3400.00
2019-03-28T09:21:39.738Z,3424.00
2019-03-28T09:22:39.694Z,3476.00
2019-03-28T09:23:39.648Z,3540.00
2019-03-28T09:24:39.604Z,3628.00
2019-03-28T09:25:39.561Z,3720.00
2019-03-28T09:26:39.508Z,3804.00
2019-03-28T09:27:39.465Z,3904.00
2019-03-28T09:28:39.423Z,4016.00
2019-03-28T09:29:39.373Z,4124.00
2019-03-28T09:30:47.897Z,4236.00
2019-03-28T09:31:39.297Z,4340.00
2019-03-28T09:32:39.238Z,4404.00
2019-03-28T09:33:40.899Z,4412.00
2019-03-28T09:34:39.152Z,4364.00
2019-03-28T09:35:39.132Z,4304.00
2019-03-28T09:36:39.057Z,4248.00
2019-03-28T09:37:39.021Z,4204.00
2019-03-28T09:38:38.968Z,4172.00
2019-03-28T09:39:38.924Z,4148.00
2019-03-28T09:40:38.886Z,4160.00
2019-03-28T09:41:38.834Z,4184.00
2019-03-28T09:42:38.789Z,4212.00
2019-03-28T09:43:38.743Z,4220.00
2019-03-28T09:44:38.700Z,4204.00
2019-03-28T09:45:38.653Z,4156.00
2019-03-28T09:46:38.610Z,4092.00
2019-03-28T09:47:38.568Z,4036.00
2019-03-28T09:48:38.519Z,4020.00
2019-03-28T09:49:38.486Z,4056.00
2019-03-28T09:50:38.430Z,4136.00
2019-03-28T09:51:38.384Z,4260.00
2019-03-28T09:52:38.340Z,4400.00
2019-03-28T09:53:38.299Z,4544.00
2019-03-28T09:54:38.251Z,4664.00
2019-03-28T09:55:38.222Z,4732.00
2019-03-28T09:56:38.163Z,4752.00
2019-03-28T09:57:38.120Z,4732.00
2019-03-28T09:58:38.075Z,4700.00
2019-03-28T09:59:38.045Z,4676.00
2019-03-28T10:00:37.988Z,4688.00
2019-03-28T10:01:37.941Z,4732.00
2019-03-28T10:02:37.898Z,4816.00
2019-03-28T10:03:37.851Z,4912.00
2019-03-28T10:04:37.809Z,5004.00
2019-03-28T10:05:38.297Z,5060.00
2019-03-28T10:06:37.718Z,5084.00
2019-03-28T10:07:38.659Z,5096.00
2019-03-28T10:08:37.633Z,5128.00
2019-03-28T10:09:37.997Z,5204.00
2019-03-28T10:10:37.542Z,5352.00
2019-03-28T10:11:37.497Z,5500.00
2019-03-28T10:12:37.466Z,5592.00
2019-03-28T10:13:37.411Z,5584.00
2019-03-28T10:14:37.362Z,5492.00
2019-03-28T10:15:37.432Z,5360.00
2019-03-28T10:16:40.257Z,5276.00
2019-03-28T10:17:37.234Z,5260.00
2019-03-28T10:18:37.189Z,5304.00
2019-03-28T10:19:37.150Z,5396.00
2019-03-28T10:20:37.102Z,5460.00
2019-03-28T10:21:37.665Z,5476.00
2019-03-28T10:22:37.012Z,5376.00
2019-03-28T10:23:39.748Z,5248.00
2019-03-28T10:24:36.921Z,5128.00
2019-03-28T10:25:36.882Z,5060.00
2019-03-28T10:26:36.837Z,5144.00
2019-03-28T10:27:36.791Z,5356.00
2019-03-28T10:28:36.761Z,5572.00
2019-03-28T10:29:36.704Z,5648.00
2019-03-28T10:30:36.702Z,5568.00
2019-03-28T10:31:36.633Z,5380.00
2019-03-28T10:32:36.587Z,5176.00
2019-03-28T10:33:36.551Z,5048.00
2019-03-28T10:34:36.482Z,5100.00
2019-03-28T10:35:36.453Z,5376.00
2019-03-28T10:36:36.397Z,5716.00
2019-03-28T10:37:36.351Z,5948.00
2019-03-28T10:38:36.332Z,5764.00
2019-03-28T10:39:36.281Z,5568.00
2019-03-28T10:40:36.437Z,5440.00
2019-03-28T10:41:39.542Z,5376.00
2019-03-28T10:42:36.147Z,5372.00
2019-03-28T10:43:36.114Z,5416.00
2019-03-28T10:44:36.065Z,5468.00
2019-03-28T10:45:36.018Z,5476.00
2019-03-28T10:46:35.977Z,5452.00
2019-03-28T10:47:35.926Z,5384.00
2019-03-28T10:48:35.891Z,5348.00
2019-03-28T10:49:35.843Z,5272.00
2019-03-28T10:50:41.497Z,5180.00
2019-03-28T10:51:35.756Z,5044.00
2019-03-28T10:52:35.712Z,4932.00
2019-03-28T10:53:35.672Z,4868.00
2019-03-28T10:54:35.700Z,4924.00
2019-03-28T10:55:35.705Z,5076.00
2019-03-28T10:56:35.643Z,5316.00
2019-03-28T10:57:35.579Z,5520.00
2019-03-28T10:58:35.454Z,5556.00
2019-03-28T10:59:35.408Z,5484.00
2019-03-28T11:00:35.364Z,5436.00
2019-03-28T11:01:48.109Z,5444.00
2019-03-28T11:02:35.273Z,5444.00
2019-03-28T11:03:35.376Z,5412.00
2019-03-28T11:04:35.188Z,5368.00
2019-03-28T11:05:35.146Z,5280.00
2019-03-28T11:06:35.101Z,5200.00
2019-03-28T11:07:35.063Z,5124.00
2019-03-28T11:08:36.652Z,5068.00
2019-03-28T11:09:34.974Z,5104.00
2019-03-28T11:10:34.935Z,5180.00
2019-03-28T11:11:34.889Z,5348.00
2019-03-28T11:12:34.847Z,5428.00
2019-03-28T11:13:34.802Z,5484.00
2019-03-28T11:14:34.758Z,5588.00
2019-03-28T11:15:34.714Z,5600.00
2019-03-28T11:16:34.687Z,5644.00
2019-03-28T11:17:34.624Z,5676.00
2019-03-28T11:18:34.587Z,5668.00
2019-03-28T11:19:34.536Z,5620.00
2019-03-28T11:20:34.532Z,5528.00
2019-03-28T11:21:34.471Z,5440.00
2019-03-28T11:22:34.409Z,5336.00
2019-03-28T11:23:34.369Z,5320.00
2019-03-28T11:24:34.322Z,5352.00
2019-03-28T11:25:34.325Z,5404.00
2019-03-28T11:26:34.235Z,5220.00
2019-03-28T11:27:34.194Z,4816.00
2019-03-28T11:28:34.160Z,4296.00
2019-03-28T11:29:34.114Z,3820.00
2019-03-28T11:30:34.061Z,3492.00
2019-03-28T11:31:45.631Z,3312.00
2019-03-28T11:32:35.874Z,3236.00
2019-03-28T11:33:33.935Z,3224.00
2019-03-28T11:34:33.895Z,3280.00
2019-03-28T11:35:33.847Z,3320.00
2019-03-28T11:36:33.804Z,3308.00
2019-03-28T11:37:33.759Z,3240.00
2019-03-28T11:38:33.716Z,3108.00
2019-03-28T11:39:33.687Z,2964.00
2019-03-28T11:40:33.628Z,2852.00
2019-03-28T11:41:34.605Z,2744.00
2019-03-28T11:42:33.540Z,2656.00
2019-03-28T11:43:33.509Z,2548.00
2019-03-28T11:44:33.455Z,2428.00
2019-03-28T11:45:33.412Z,2308.00
2019-03-28T11:46:33.376Z,2184.00
2019-03-28T11:47:33.326Z,2084.00
2019-03-28T11:48:33.281Z,1992.00
2019-03-28T11:49:33.244Z,1920.00
2019-03-28T11:50:33.195Z,1848.00
2019-03-28T11:51:36.113Z,1796.00
2019-03-28T11:52:33.110Z,1764.00
2019-03-28T11:53:33.064Z,1760.00
2019-03-28T11:54:33.023Z,1780.00
2019-03-28T11:55:32.981Z,1816.00
2019-03-28T11:56:32.933Z,1852.00
2019-03-28T11:57:32.892Z,1876.00
2019-03-28T11:58:32.845Z,1904.00
2019-03-28T11:59:33.227Z,1932.00
2019-03-28T12:00:32.768Z,1972.00
2019-03-28T12:01:32.714Z,2028.00
2019-03-28T12:02:32.673Z,2096.00
2019-03-28T12:03:32.627Z,2188.00
2019-03-28T12:04:32.596Z,2292.00
2019-03-28T12:05:32.540Z,2424.00
2019-03-28T12:06:32.500Z,2540.00
2019-03-28T12:07:32.453Z,2640.00
2019-03-28T12:08:32.408Z,2712.00
2019-03-28T12:09:32.363Z,2744.00
2019-03-28T12:10:32.316Z,2776.00
2019-03-28T12:11:32.278Z,2776.00
2019-03-28T12:12:32.230Z,2760.00
2019-03-28T12:13:44.042Z,2748.00
2019-03-28T12:14:32.146Z,2744.00
2019-03-28T12:15:32.101Z,2768.00
2019-03-28T12:16:32.056Z,2820.00
2019-03-28T12:17:32.008Z,2884.00
2019-03-28T12:18:31.962Z,2948.00
2019-03-28T12:19:31.923Z,2984.00
2019-03-28T12:20:31.893Z,2964.00
2019-03-28T12:21:31.831Z,2920.00
2019-03-28T12:22:31.791Z,2884.00
2019-03-28T12:23:31.746Z,2852.00
2019-03-28T12:24:31.704Z,2820.00
2019-03-28T12:25:31.664Z,2800.00
2019-03-28T12:26:31.615Z,2792.00
2019-03-28T12:27:31.571Z,2796.00
2019-03-28T12:28:31.525Z,2816.00
2019-03-28T12:29:31.483Z,2824.00
2019-03-28T12:30:31.440Z,2828.00
2019-03-28T12:31:33.170Z,2832.00
2019-03-28T12:32:31.350Z,2836.00
2019-03-28T12:33:31.306Z,2836.00
2019-03-28T12:34:31.260Z,2844.00
2019-03-28T12:35:31.217Z,2860.00
2019-03-28T12:36:31.170Z,2888.00
2019-03-28T12:37:31.125Z,2920.00
2019-03-28T12:38:31.088Z,2956.00